createdAt,value
2017-09-12T00:00:51.454Z,0
2017-09-12T00:01:54.182Z,0
2017-09-12T00:02:56.574Z,0
2017-09-12T00:03:58.978Z,0
2017-09-12T00:05:01.368Z,0
2017-09-12T00:06:03.768Z,0
2017-09-12T00:07:06.156Z,0
2017-09-12T00:08:08.554Z,0
2017-09-12T00:09:10.951Z,0
2017-09-12T00:10:13.345Z,0
2017-09-12T00:11:16.080Z,0
2017-09-12T00:12:18.480Z,0
2017-09-12T00:13:20.875Z,0
2017-09-12T00:14:23.277Z,0
2017-09-12T00:15:25.673Z,0
2017-09-12T00:16:28.067Z,0
2017-09-12T00:17:30.457Z,0
2017-09-12T00:18:32.853Z,0
2017-09-12T00:19:35.242Z,0
2017-09-12T00:20:37.624Z,0
2017-09-12T00:21:40.353Z,0
2017-09-12T00:22:42.742Z,0
2017-09-12T00:23:45.143Z,0
2017-09-12T00:24:48.229Z,0
2017-09-12T00:25:50.613Z,0
2017-09-12T00:26:53.015Z,0
2017-09-12T00:27:55.409Z,0
2017-09-12T00:28:57.802Z,0
2017-09-12T00:30:00.194Z,0
2017-09-12T00:31:02.587Z,0
2017-09-12T00:32:04.981Z,0
2017-09-12T00:33:07.738Z,0
2017-09-12T00:34:10.480Z,0
2017-09-12T00:35:12.863Z,0
2017-09-12T00:36:15.261Z,0
2017-09-12T00:37:17.653Z,0
2017-09-12T00:38:20.047Z,0
2017-09-12T00:39:22.439Z,0
2017-09-12T00:40:24.828Z,0
2017-09-12T00:41:27.220Z,0
2017-09-12T00:42:29.614Z,0
2017-09-12T00:43:32.040Z,0
2017-09-12T00:44:34.399Z,0
2017-09-12T00:45:36.783Z,0
2017-09-12T00:46:39.182Z,0
2017-09-12T00:47:41.573Z,0
2017-09-12T00:48:44.016Z,0
2017-09-12T00:49:46.751Z,0
2017-09-12T00:50:49.144Z,0
2017-09-12T00:51:51.541Z,0
2017-09-12T00:52:53.940Z,0
2017-09-12T00:53:56.329Z,0
2017-09-12T00:54:58.724Z,0
2017-09-12T00:56:01.115Z,0
2017-09-12T00:57:03.510Z,0
2017-09-12T00:58:05.899Z,0
2017-09-12T00:59:08.300Z,0
2017-09-12T01:00:10.687Z,0
2017-09-12T01:01:13.083Z,0
2017-09-12T01:02:15.477Z,0
2017-09-12T01:03:17.869Z,0
2017-09-12T01:04:20.261Z,0
2017-09-12T01:05:22.658Z,0
2017-09-12T01:06:25.047Z,0
2017-09-12T01:07:27.442Z,0
2017-09-12T01:08:29.845Z,0
2017-09-12T01:09:32.233Z,0
2017-09-12T01:10:34.629Z,0
2017-09-12T01:11:37.020Z,0
2017-09-12T01:12:39.419Z,0
2017-09-12T01:13:41.816Z,0
2017-09-12T01:14:44.217Z,0
2017-09-12T01:15:46.598Z,0
2017-09-12T01:16:48.995Z,0
2017-09-12T01:17:51.391Z,0
2017-09-12T01:18:53.785Z,0
2017-09-12T01:19:56.170Z,0
2017-09-12T01:20:58.897Z,0
2017-09-12T01:22:01.289Z,0
2017-09-12T01:23:04.019Z,0
2017-09-12T01:24:06.409Z,0
2017-09-12T01:25:08.813Z,0
2017-09-12T01:26:11.207Z,0
2017-09-12T01:27:13.599Z,0
2017-09-12T01:28:15.991Z,0
2017-09-12T01:29:18.383Z,0
2017-09-12T01:30:20.782Z,0
2017-09-12T01:31:23.169Z,0
2017-09-12T01:32:25.567Z,0
2017-09-12T01:33:27.961Z,0
2017-09-12T01:34:30.348Z,0
2017-09-12T01:35:32.746Z,0
2017-09-12T01:36:35.139Z,0
2017-09-12T01:37:37.870Z,0
2017-09-12T01:38:40.258Z,0
2017-09-12T01:39:42.662Z,0
2017-09-12T01:40:45.049Z,0
2017-09-12T01:41:47.448Z,0
2017-09-12T01:42:49.845Z,0
2017-09-12T01:43:52.233Z,0
2017-09-12T01:44:54.638Z,0
2017-09-12T01:45:57.034Z,0
2017-09-12T01:46:59.430Z,0
2017-09-12T01:48:01.825Z,0
2017-09-12T01:49:04.215Z,0
2017-09-12T01:50:06.606Z,0
2017-09-12T01:51:08.996Z,0
2017-09-12T01:52:11.393Z,0
2017-09-12T01:53:13.780Z,0
2017-09-12T01:54:16.178Z,0
2017-09-12T01:55:18.570Z,0
2017-09-12T01:56:20.959Z,0
2017-09-12T01:57:23.710Z,0
2017-09-12T01:58:26.107Z,0
2017-09-12T01:59:28.490Z,0
2017-09-12T02:00:30.891Z,0
2017-09-12T02:01:33.281Z,0
2017-09-12T02:02:35.674Z,0
2017-09-12T02:03:38.424Z,0
2017-09-12T02:04:40.816Z,0
2017-09-12T02:05:43.203Z,0
2017-09-12T02:06:45.596Z,0
2017-09-12T02:07:48.337Z,0
2017-09-12T02:08:51.063Z,0
2017-09-12T02:09:53.454Z,0
2017-09-12T02:10:55.846Z,0
2017-09-12T02:11:58.241Z,0
2017-09-12T02:13:00.959Z,0
2017-09-12T02:14:03.365Z,0
2017-09-12T02:15:05.754Z,0
2017-09-12T02:16:08.489Z,0
2017-09-12T02:17:10.884Z,0
2017-09-12T02:18:13.275Z,0
2017-09-12T02:19:15.663Z,0
2017-09-12T02:20:18.063Z,0
2017-09-12T02:21:20.450Z,0
2017-09-12T02:22:22.844Z,0
2017-09-12T02:23:25.231Z,0
2017-09-12T02:24:27.624Z,0
2017-09-12T02:25:30.009Z,0
2017-09-12T02:26:32.407Z,0
2017-09-12T02:27:34.794Z,0
2017-09-12T02:28:37.188Z,0
2017-09-12T02:29:39.586Z,0
2017-09-12T02:30:41.979Z,0
2017-09-12T02:31:44.376Z,0
2017-09-12T02:32:46.772Z,0
2017-09-12T02:33:49.158Z,0
2017-09-12T02:34:51.556Z,0
2017-09-12T02:35:53.954Z,0
2017-09-12T02:36:56.347Z,0
2017-09-12T02:37:58.735Z,0
2017-09-12T02:39:01.138Z,0
2017-09-12T02:40:03.535Z,0
2017-09-12T02:41:05.920Z,0
2017-09-12T02:42:08.315Z,0
2017-09-12T02:43:10.707Z,0
2017-09-12T02:44:13.443Z,0
2017-09-12T02:45:16.171Z,0
2017-09-12T02:46:18.897Z,0
2017-09-12T02:47:21.281Z,0
2017-09-12T02:48:23.676Z,0
2017-09-12T02:49:26.409Z,0
2017-09-12T02:50:28.803Z,0
2017-09-12T02:51:31.193Z,0
2017-09-12T02:52:33.928Z,0
2017-09-12T02:53:36.677Z,0
2017-09-12T02:54:39.072Z,0
2017-09-12T02:55:41.456Z,0
2017-09-12T02:56:43.848Z,0
2017-09-12T02:57:46.249Z,0
2017-09-12T02:58:48.634Z,0
2017-09-12T02:59:51.024Z,0
2017-09-12T03:00:53.424Z,0
2017-09-12T03:01:55.806Z,0
2017-09-12T03:02:58.197Z,0
2017-09-12T03:04:00.932Z,0
2017-09-12T03:05:03.311Z,0
2017-09-12T03:06:05.712Z,0
2017-09-12T03:07:08.103Z,0
2017-09-12T03:08:10.844Z,0
2017-09-12T03:09:13.240Z,0
2017-09-12T03:10:15.631Z,0
2017-09-12T03:11:18.024Z,0
2017-09-12T03:12:20.424Z,0
2017-09-12T03:13:22.808Z,0
2017-09-12T03:14:25.206Z,0
2017-09-12T03:15:27.598Z,0
2017-09-12T03:16:29.991Z,0
2017-09-12T03:17:32.385Z,0
2017-09-12T03:18:34.784Z,0
2017-09-12T03:19:37.161Z,0
2017-09-12T03:20:39.566Z,0
2017-09-12T03:21:41.944Z,0
2017-09-12T03:22:44.340Z,0
2017-09-12T03:23:46.744Z,0
2017-09-12T03:24:49.137Z,0
2017-09-12T03:25:51.530Z,0
2017-09-12T03:26:53.921Z,0
2017-09-12T03:27:56.313Z,0
2017-09-12T03:28:58.716Z,0
2017-09-12T03:30:01.112Z,0
2017-09-12T03:31:03.832Z,0
2017-09-12T03:32:06.234Z,0
2017-09-12T03:33:08.627Z,0
2017-09-12T03:34:11.017Z,0
2017-09-12T03:35:13.404Z,0
2017-09-12T03:36:15.801Z,0
2017-09-12T03:37:18.193Z,0
2017-09-12T03:38:20.577Z,0
2017-09-12T03:39:22.971Z,0
2017-09-12T03:40:25.368Z,0
2017-09-12T03:41:27.760Z,0
2017-09-12T03:42:30.488Z,0
2017-09-12T03:43:32.878Z,0
2017-09-12T03:44:35.613Z,0
2017-09-12T03:45:38.018Z,0
2017-09-12T03:46:40.407Z,0
2017-09-12T03:47:42.799Z,0
2017-09-12T03:48:45.192Z,0
2017-09-12T03:49:47.929Z,0
2017-09-12T03:50:50.320Z,0
2017-09-12T03:51:52.717Z,0
2017-09-12T03:52:55.111Z,0
2017-09-12T03:53:57.499Z,0
2017-09-12T03:54:59.905Z,0
2017-09-12T03:56:02.292Z,0
2017-09-12T03:57:05.023Z,0
2017-09-12T03:58:07.422Z,0
2017-09-12T03:59:09.813Z,0
2017-09-12T04:00:12.208Z,0
2017-09-12T04:01:14.605Z,0
2017-09-12T04:02:16.995Z,0
2017-09-12T04:03:19.392Z,0
2017-09-12T04:04:21.785Z,0
2017-09-12T04:05:24.518Z,0
2017-09-12T04:06:26.911Z,0
2017-09-12T04:07:29.305Z,0
2017-09-12T04:08:31.697Z,0
2017-09-12T04:09:34.089Z,0
2017-09-12T04:10:36.481Z,0
2017-09-12T04:11:38.882Z,0
2017-09-12T04:12:41.613Z,0
2017-09-12T04:13:44.003Z,0
2017-09-12T04:14:46.397Z,0
2017-09-12T04:15:48.784Z,0
2017-09-12T04:16:51.183Z,0
2017-09-12T04:17:53.912Z,0
2017-09-12T04:18:56.294Z,0
2017-09-12T04:19:58.692Z,0
2017-09-12T04:21:01.085Z,0
2017-09-12T04:22:03.507Z,0
2017-09-12T04:23:05.877Z,0
2017-09-12T04:24:08.273Z,0
2017-09-12T04:25:10.662Z,0
2017-09-12T04:26:13.057Z,0
2017-09-12T04:27:15.450Z,0
2017-09-12T04:28:17.840Z,0
2017-09-12T04:29:20.234Z,0
2017-09-12T04:30:22.618Z,0
2017-09-12T04:31:25.013Z,0
2017-09-12T04:32:27.407Z,0
2017-09-12T04:33:29.802Z,0
2017-09-12T04:34:32.192Z,0
2017-09-12T04:35:34.586Z,0
2017-09-12T04:36:36.974Z,0
2017-09-12T04:37:39.369Z,0
2017-09-12T04:38:41.766Z,0
2017-09-12T04:39:44.496Z,0
2017-09-12T04:40:46.892Z,0
2017-09-12T04:41:49.974Z,1
2017-09-12T04:42:52.360Z,0
2017-09-12T04:43:54.762Z,1
2017-09-12T04:44:57.493Z,1
2017-09-12T04:45:59.887Z,1
2017-09-12T04:47:02.284Z,1
2017-09-12T04:48:04.677Z,1
2017-09-12T04:49:07.076Z,2
2017-09-12T04:50:09.806Z,2
2017-09-12T04:51:12.548Z,2
2017-09-12T04:52:14.947Z,2
2017-09-12T04:53:17.337Z,2
2017-09-12T04:54:19.744Z,2
2017-09-12T04:55:22.136Z,3
2017-09-12T04:56:24.532Z,3
2017-09-12T04:57:26.931Z,3
2017-09-12T04:58:29.331Z,3
2017-09-12T04:59:31.737Z,3
2017-09-12T05:00:34.131Z,4
2017-09-12T05:01:37.223Z,4
2017-09-12T05:02:39.609Z,4
2017-09-12T05:03:42.017Z,4
2017-09-12T05:04:44.410Z,4
2017-09-12T05:05:46.806Z,5
2017-09-12T05:06:49.537Z,5
2017-09-12T05:07:51.934Z,6
2017-09-12T05:08:54.329Z,6
2017-09-12T05:09:56.727Z,6
2017-09-12T05:10:59.133Z,6
2017-09-12T05:12:01.532Z,6
2017-09-12T05:13:03.927Z,6
2017-09-12T05:14:06.324Z,6
2017-09-12T05:15:08.721Z,6
2017-09-12T05:16:11.116Z,6
2017-09-12T05:17:13.512Z,6
2017-09-12T05:18:15.908Z,6
2017-09-12T05:19:18.312Z,6
2017-09-12T05:20:21.059Z,5
2017-09-12T05:21:23.457Z,5
2017-09-12T05:22:25.857Z,5
2017-09-12T05:23:28.243Z,6
2017-09-12T05:24:30.639Z,5
2017-09-12T05:25:33.039Z,6
2017-09-12T05:26:35.430Z,6
2017-09-12T05:27:37.831Z,6
2017-09-12T05:28:40.226Z,5
2017-09-12T05:29:42.626Z,7
2017-09-12T05:30:45.024Z,8
2017-09-12T05:31:47.428Z,8
2017-09-12T05:32:49.808Z,6
2017-09-12T05:33:52.543Z,6
2017-09-12T05:34:54.953Z,7
2017-09-12T05:35:57.366Z,9
2017-09-12T05:36:59.767Z,8
2017-09-12T05:38:02.178Z,8
2017-09-12T05:39:04.576Z,7
2017-09-12T05:40:06.976Z,9
2017-09-12T05:41:09.378Z,11
2017-09-12T05:42:11.762Z,13
2017-09-12T05:43:14.157Z,13
2017-09-12T05:44:16.552Z,15
2017-09-12T05:45:18.952Z,17
2017-09-12T05:46:21.339Z,17
2017-09-12T05:47:23.743Z,17
2017-09-12T05:48:26.141Z,17
2017-09-12T05:49:28.543Z,17
2017-09-12T05:50:30.942Z,19
2017-09-12T05:51:33.336Z,18
2017-09-12T05:52:35.731Z,17
2017-09-12T05:53:38.136Z,17
2017-09-12T05:54:40.534Z,17
2017-09-12T05:55:42.948Z,15
2017-09-12T05:56:45.341Z,19
2017-09-12T05:57:48.072Z,19
2017-09-12T05:58:50.471Z,18
2017-09-12T05:59:52.872Z,17
2017-09-12T06:00:55.265Z,17
2017-09-12T06:01:57.663Z,20
2017-09-12T06:03:00.060Z,25
2017-09-12T06:04:02.811Z,27
2017-09-12T06:05:05.207Z,32
2017-09-12T06:06:07.615Z,38
2017-09-12T06:07:10.015Z,42
2017-09-12T06:08:12.411Z,45
2017-09-12T06:09:14.800Z,44
2017-09-12T06:10:17.208Z,45
2017-09-12T06:11:19.604Z,43
2017-09-12T06:12:22.000Z,43
2017-09-12T06:13:24.396Z,47
2017-09-12T06:14:26.789Z,49
2017-09-12T06:15:29.188Z,48
2017-09-12T06:16:31.589Z,51
2017-09-12T06:17:33.981Z,52
2017-09-12T06:18:36.724Z,52
2017-09-12T06:19:39.119Z,53
2017-09-12T06:20:41.514Z,56
2017-09-12T06:21:43.902Z,58
2017-09-12T06:22:46.302Z,57
2017-09-12T06:23:48.688Z,57
2017-09-12T06:24:51.094Z,58
2017-09-12T06:25:53.489Z,58
2017-09-12T06:26:55.882Z,53
2017-09-12T06:27:58.285Z,50
2017-09-12T06:29:00.677Z,50
2017-09-12T06:30:03.072Z,56
2017-09-12T06:31:05.829Z,58
2017-09-12T06:32:08.218Z,54
2017-09-12T06:33:10.634Z,44
2017-09-12T06:34:13.032Z,42
2017-09-12T06:35:15.424Z,44
2017-09-12T06:36:17.833Z,46
2017-09-12T06:37:20.226Z,50
2017-09-12T06:38:22.623Z,57
2017-09-12T06:39:25.022Z,59
2017-09-12T06:40:27.418Z,61
2017-09-12T06:41:29.817Z,61
2017-09-12T06:42:32.210Z,59
2017-09-12T06:43:34.613Z,57
2017-09-12T06:44:37.005Z,55
2017-09-12T06:45:39.419Z,51
2017-09-12T06:46:41.803Z,51
2017-09-12T06:47:44.535Z,51
2017-09-12T06:48:46.953Z,53
2017-09-12T06:49:49.347Z,54
2017-09-12T06:50:51.742Z,56
2017-09-12T06:51:54.143Z,61
2017-09-12T06:52:56.542Z,64
2017-09-12T06:53:58.939Z,64
2017-09-12T06:55:01.339Z,65
2017-09-12T06:56:03.924Z,65
2017-09-12T06:57:06.325Z,65
2017-09-12T06:58:08.726Z,63
2017-09-12T06:59:11.111Z,60
2017-09-12T07:00:13.522Z,60
2017-09-12T07:01:15.912Z,61
2017-09-12T07:02:18.304Z,61
2017-09-12T07:03:20.702Z,62
2017-09-12T07:04:23.100Z,63
2017-09-12T07:05:25.488Z,66
2017-09-12T07:06:27.884Z,67
2017-09-12T07:07:30.291Z,67
2017-09-12T07:08:32.686Z,64
2017-09-12T07:09:35.080Z,59
2017-09-12T07:10:37.814Z,55
2017-09-12T07:11:40.553Z,57
2017-09-12T07:12:42.941Z,59
2017-09-12T07:13:45.346Z,60
2017-09-12T07:14:47.728Z,61
2017-09-12T07:15:50.145Z,61
2017-09-12T07:16:52.545Z,62
2017-09-12T07:17:55.278Z,66
2017-09-12T07:18:57.677Z,68
2017-09-12T07:20:00.073Z,67
2017-09-12T07:21:02.802Z,65
2017-09-12T07:22:05.214Z,62
2017-09-12T07:23:07.608Z,58
2017-09-12T07:24:10.012Z,57
2017-09-12T07:25:12.765Z,55
2017-09-12T07:26:15.153Z,56
2017-09-12T07:27:17.547Z,55
2017-09-12T07:28:19.946Z,55
2017-09-12T07:29:22.337Z,54
2017-09-12T07:30:24.743Z,47
2017-09-12T07:31:27.152Z,42
2017-09-12T07:32:29.546Z,42
2017-09-12T07:33:31.945Z,47
2017-09-12T07:34:34.350Z,47
2017-09-12T07:35:36.743Z,42
2017-09-12T07:36:39.141Z,43
2017-09-12T07:37:41.531Z,49
2017-09-12T07:38:43.935Z,55
2017-09-12T07:39:46.327Z,66
2017-09-12T07:40:49.080Z,77
2017-09-12T07:41:51.491Z,86
2017-09-12T07:42:53.880Z,85
2017-09-12T07:43:56.622Z,82
2017-09-12T07:44:59.021Z,78
2017-09-12T07:46:01.426Z,74
2017-09-12T07:47:03.821Z,75
2017-09-12T07:48:06.219Z,74
2017-09-12T07:49:08.611Z,73
2017-09-12T07:50:11.004Z,74
2017-09-12T07:51:13.404Z,73
2017-09-12T07:52:15.792Z,73
2017-09-12T07:53:18.194Z,74
2017-09-12T07:54:20.588Z,76
2017-09-12T07:55:23.323Z,77
2017-09-12T07:56:25.735Z,83
2017-09-12T07:57:28.138Z,87
2017-09-12T07:58:30.528Z,93
2017-09-12T07:59:32.930Z,90
2017-09-12T08:00:35.336Z,84
2017-09-12T08:01:37.738Z,79
2017-09-12T08:02:40.134Z,60
2017-09-12T08:03:42.869Z,49
2017-09-12T08:04:45.263Z,48
2017-09-12T08:05:47.659Z,50
2017-09-12T08:06:50.067Z,54
2017-09-12T08:07:52.471Z,58
2017-09-12T08:08:54.865Z,67
2017-09-12T08:09:57.261Z,76
2017-09-12T08:10:59.657Z,81
2017-09-12T08:12:02.068Z,93
2017-09-12T08:13:04.458Z,93
2017-09-12T08:14:06.840Z,93
2017-09-12T08:15:09.236Z,93
2017-09-12T08:16:11.635Z,79
2017-09-12T08:17:14.029Z,81
2017-09-12T08:18:16.428Z,78
2017-09-12T08:19:18.819Z,68
2017-09-12T08:20:21.224Z,56
2017-09-12T08:21:23.630Z,55
2017-09-12T08:22:26.017Z,52
2017-09-12T08:23:28.427Z,77
2017-09-12T08:24:30.821Z,89
2017-09-12T08:25:33.212Z,113
2017-09-12T08:26:35.619Z,131
2017-09-12T08:27:38.027Z,164
2017-09-12T08:28:40.417Z,138
2017-09-12T08:29:42.815Z,107
2017-09-12T08:30:45.213Z,112
2017-09-12T08:31:47.610Z,125
2017-09-12T08:32:50.001Z,133
2017-09-12T08:33:52.402Z,146
2017-09-12T08:34:54.811Z,164
2017-09-12T08:35:57.559Z,189
2017-09-12T08:36:59.971Z,208
2017-09-12T08:38:02.371Z,191
2017-09-12T08:39:04.759Z,167
2017-09-12T08:40:07.166Z,143
2017-09-12T08:41:09.896Z,116
2017-09-12T08:42:12.290Z,87
2017-09-12T08:43:14.687Z,71
2017-09-12T08:44:17.091Z,72
2017-09-12T08:45:19.502Z,79
2017-09-12T08:46:21.906Z,88
2017-09-12T08:47:24.308Z,93
2017-09-12T08:48:26.704Z,101
2017-09-12T08:49:29.112Z,123
2017-09-12T08:50:31.512Z,136
2017-09-12T08:51:33.905Z,136
2017-09-12T08:52:36.310Z,140
2017-09-12T08:53:38.711Z,137
2017-09-12T08:54:41.105Z,130
2017-09-12T08:55:43.503Z,122
2017-09-12T08:56:45.895Z,116
2017-09-12T08:57:48.295Z,115
2017-09-12T08:58:50.701Z,120
2017-09-12T08:59:53.090Z,122
2017-09-12T09:00:55.490Z,112
2017-09-12T09:01:57.896Z,100
2017-09-12T09:03:00.288Z,110
2017-09-12T09:04:02.706Z,104
2017-09-12T09:05:05.103Z,100
2017-09-12T09:06:07.852Z,108
2017-09-12T09:07:10.255Z,91
2017-09-12T09:08:12.661Z,90
2017-09-12T09:09:15.046Z,93
2017-09-12T09:10:17.447Z,107
2017-09-12T09:11:19.854Z,117
2017-09-12T09:12:22.585Z,132
2017-09-12T09:13:25.327Z,144
2017-09-12T09:14:27.720Z,161
2017-09-12T09:15:30.118Z,113
2017-09-12T09:16:32.512Z,99
2017-09-12T09:17:34.914Z,64
2017-09-12T09:18:37.306Z,77
2017-09-12T09:19:40.060Z,102
2017-09-12T09:20:42.472Z,73
2017-09-12T09:21:44.867Z,86
2017-09-12T09:22:47.266Z,88
2017-09-12T09:23:49.996Z,52
2017-09-12T09:24:52.393Z,54
2017-09-12T09:25:54.790Z,39
2017-09-12T09:26:57.525Z,51
2017-09-12T09:27:59.923Z,58
2017-09-12T09:29:02.328Z,85
2017-09-12T09:30:04.724Z,62
2017-09-12T09:31:07.125Z,70
2017-09-12T09:32:09.520Z,83
2017-09-12T09:33:11.924Z,84
2017-09-12T09:34:14.320Z,84
2017-09-12T09:35:16.730Z,96
2017-09-12T09:36:19.129Z,84
2017-09-12T09:37:21.529Z,66
2017-09-12T09:38:24.602Z,86
2017-09-12T09:39:26.999Z,69
2017-09-12T09:40:29.395Z,84
2017-09-12T09:41:31.792Z,98
2017-09-12T09:42:34.192Z,119
2017-09-12T09:43:36.589Z,130
2017-09-12T09:44:38.978Z,146
2017-09-12T09:45:41.383Z,155
2017-09-12T09:46:43.770Z,248
2017-09-12T09:47:46.173Z,529
2017-09-12T09:48:48.573Z,591
2017-09-12T09:49:50.970Z,458
2017-09-12T09:50:53.367Z,232
2017-09-12T09:51:56.106Z,509
2017-09-12T09:52:58.501Z,177
2017-09-12T09:54:00.906Z,228
2017-09-12T09:55:03.302Z,246
2017-09-12T09:56:05.692Z,208
2017-09-12T09:57:08.098Z,260
2017-09-12T09:58:10.496Z,243
2017-09-12T09:59:12.896Z,196
2017-09-12T10:00:15.289Z,130
2017-09-12T10:01:18.033Z,155
2017-09-12T10:02:20.431Z,235
2017-09-12T10:03:22.828Z,407
2017-09-12T10:04:25.228Z,426
2017-09-12T10:05:27.633Z,501
2017-09-12T10:06:30.028Z,285
2017-09-12T10:07:32.436Z,353
2017-09-12T10:08:34.832Z,406
2017-09-12T10:09:37.241Z,283
2017-09-12T10:10:39.641Z,553
2017-09-12T10:11:42.040Z,590
2017-09-12T10:12:44.442Z,655
2017-09-12T10:13:46.845Z,465
2017-09-12T10:14:49.245Z,544
2017-09-12T10:15:51.646Z,529
2017-09-12T10:16:54.050Z,571
2017-09-12T10:17:56.788Z,166
2017-09-12T10:18:59.525Z,241
2017-09-12T10:20:01.939Z,160
2017-09-12T10:21:04.338Z,139
2017-09-12T10:22:06.740Z,341
2017-09-12T10:23:09.145Z,594
2017-09-12T10:24:11.544Z,225
2017-09-12T10:25:13.947Z,627
2017-09-12T10:26:16.351Z,330
2017-09-12T10:27:18.746Z,412
2017-09-12T10:28:21.154Z,207
2017-09-12T10:29:23.560Z,156
2017-09-12T10:30:25.968Z,155
2017-09-12T10:31:28.365Z,203
2017-09-12T10:32:30.770Z,178
2017-09-12T10:33:33.176Z,248
2017-09-12T10:34:35.569Z,199
2017-09-12T10:35:37.974Z,100
2017-09-12T10:36:40.375Z,55
2017-09-12T10:37:42.772Z,41
2017-09-12T10:38:45.177Z,50
2017-09-12T10:39:47.572Z,73
2017-09-12T10:40:49.977Z,79
2017-09-12T10:41:52.394Z,85
2017-09-12T10:42:54.842Z,82
2017-09-12T10:43:57.249Z,74
2017-09-12T10:44:59.651Z,77
2017-09-12T10:46:02.056Z,80
2017-09-12T10:47:04.456Z,100
2017-09-12T10:48:06.862Z,388
2017-09-12T10:49:09.265Z,178
2017-09-12T10:50:11.999Z,166
2017-09-12T10:51:14.414Z,131
2017-09-12T10:52:16.807Z,90
2017-09-12T10:53:19.548Z,77
2017-09-12T10:54:21.948Z,68
2017-09-12T10:55:24.350Z,62
2017-09-12T10:56:26.751Z,51
2017-09-12T10:57:29.157Z,67
2017-09-12T10:58:31.551Z,70
2017-09-12T10:59:33.955Z,60
2017-09-12T11:00:36.354Z,73
2017-09-12T11:01:38.757Z,113
2017-09-12T11:02:41.498Z,179
2017-09-12T11:03:43.896Z,309
2017-09-12T11:04:46.647Z,220
2017-09-12T11:05:49.063Z,288
2017-09-12T11:06:51.450Z,251
2017-09-12T11:07:53.860Z,620
2017-09-12T11:08:56.261Z,453
2017-09-12T11:09:58.657Z,384
2017-09-12T11:11:01.061Z,470
2017-09-12T11:12:03.460Z,309
2017-09-12T11:13:05.851Z,521
2017-09-12T11:14:08.258Z,276
2017-09-12T11:15:10.649Z,261
2017-09-12T11:16:13.051Z,181
2017-09-12T11:17:15.463Z,173
2017-09-12T11:18:17.860Z,180
2017-09-12T11:19:20.272Z,450
2017-09-12T11:20:22.696Z,675
2017-09-12T11:21:25.106Z,563
2017-09-12T11:22:27.530Z,476
2017-09-12T11:23:29.959Z,107
2017-09-12T11:24:32.352Z,82
2017-09-12T11:25:34.763Z,64
2017-09-12T11:26:37.196Z,51
2017-09-12T11:27:39.597Z,44
2017-09-12T11:28:42.021Z,39
2017-09-12T11:29:44.436Z,36
2017-09-12T11:30:46.855Z,37
2017-09-12T11:31:49.263Z,43
2017-09-12T11:32:51.690Z,56
2017-09-12T11:33:54.118Z,77
2017-09-12T11:34:56.525Z,86
2017-09-12T11:35:58.935Z,103
2017-09-12T11:37:01.340Z,200
2017-09-12T11:38:03.764Z,157
2017-09-12T11:39:06.176Z,116
2017-09-12T11:40:08.580Z,84
2017-09-12T11:41:10.977Z,62
2017-09-12T11:42:13.381Z,54
2017-09-12T11:43:15.786Z,54
2017-09-12T11:44:18.187Z,59
2017-09-12T11:45:20.592Z,74
2017-09-12T11:46:22.996Z,89
2017-09-12T11:47:25.788Z,114
2017-09-12T11:48:28.193Z,147
2017-09-12T11:49:30.591Z,146
2017-09-12T11:50:32.993Z,163
2017-09-12T11:51:35.733Z,175
2017-09-12T11:52:38.138Z,307
2017-09-12T11:53:40.546Z,288
2017-09-12T11:54:42.954Z,186
2017-09-12T11:55:45.356Z,156
2017-09-12T11:56:47.759Z,134
2017-09-12T11:57:50.163Z,119
2017-09-12T11:58:52.568Z,108
2017-09-12T11:59:54.971Z,99
2017-09-12T12:00:57.369Z,92
2017-09-12T12:01:59.780Z,93
2017-09-12T12:03:02.177Z,103
2017-09-12T12:04:04.580Z,118
2017-09-12T12:05:06.994Z,146
2017-09-12T12:06:09.388Z,227
2017-09-12T12:07:11.792Z,526
2017-09-12T12:08:14.193Z,268
2017-09-12T12:09:16.582Z,243
2017-09-12T12:10:18.983Z,225
2017-09-12T12:11:21.383Z,237
2017-09-12T12:12:23.778Z,186
2017-09-12T12:13:26.187Z,177
2017-09-12T12:14:28.590Z,189
2017-09-12T12:15:31.349Z,243
2017-09-12T12:16:33.757Z,271
2017-09-12T12:17:36.159Z,240
2017-09-12T12:18:38.557Z,356
2017-09-12T12:19:40.963Z,539
2017-09-12T12:20:43.703Z,491
2017-09-12T12:21:46.102Z,180
2017-09-12T12:22:48.504Z,512
2017-09-12T12:23:51.239Z,556
2017-09-12T12:24:53.635Z,520
2017-09-12T12:25:56.035Z,394
2017-09-12T12:26:58.443Z,220
2017-09-12T12:28:00.837Z,239
2017-09-12T12:29:03.254Z,125
2017-09-12T12:30:05.649Z,105
2017-09-12T12:31:08.056Z,91
2017-09-12T12:32:10.457Z,74
2017-09-12T12:33:12.855Z,59
2017-09-12T12:34:15.601Z,58
2017-09-12T12:35:18.003Z,69
2017-09-12T12:36:20.407Z,97
2017-09-12T12:37:22.814Z,124
2017-09-12T12:38:25.549Z,225
2017-09-12T12:39:27.953Z,226
2017-09-12T12:40:30.354Z,497
2017-09-12T12:41:32.759Z,514
2017-09-12T12:42:35.166Z,488
2017-09-12T12:43:37.572Z,489
2017-09-12T12:44:39.973Z,436
2017-09-12T12:45:42.374Z,402
2017-09-12T12:46:44.777Z,495
2017-09-12T12:47:47.187Z,513
2017-09-12T12:48:49.595Z,146
2017-09-12T12:49:51.991Z,113
2017-09-12T12:50:54.397Z,223
2017-09-12T12:51:56.806Z,202
2017-09-12T12:52:59.210Z,104
2017-09-12T12:54:01.978Z,67
2017-09-12T12:55:04.381Z,47
2017-09-12T12:56:06.786Z,36
2017-09-12T12:57:09.202Z,25
2017-09-12T12:58:11.936Z,27
2017-09-12T12:59:14.346Z,25
2017-09-12T13:00:16.748Z,22
2017-09-12T13:01:19.155Z,19
2017-09-12T13:02:21.590Z,18
2017-09-12T13:03:23.973Z,21
2017-09-12T13:04:26.373Z,24
2017-09-12T13:05:28.782Z,25
2017-09-12T13:06:31.180Z,26
2017-09-12T13:07:33.592Z,29
2017-09-12T13:08:35.993Z,34
2017-09-12T13:09:38.402Z,37
2017-09-12T13:10:40.798Z,44
2017-09-12T13:11:43.214Z,54
2017-09-12T13:12:45.632Z,67
2017-09-12T13:13:48.041Z,135
2017-09-12T13:14:50.448Z,272
2017-09-12T13:15:52.854Z,343
2017-09-12T13:16:55.263Z,334
2017-09-12T13:17:57.673Z,271
2017-09-12T13:19:00.062Z,185
2017-09-12T13:20:02.475Z,109
2017-09-12T13:21:04.872Z,170
2017-09-12T13:22:07.274Z,88
2017-09-12T13:23:10.024Z,81
2017-09-12T13:24:12.426Z,78
2017-09-12T13:25:14.830Z,77
2017-09-12T13:26:17.580Z,75
2017-09-12T13:27:19.983Z,72
2017-09-12T13:28:22.380Z,70
2017-09-12T13:29:24.781Z,67
2017-09-12T13:30:27.195Z,71
2017-09-12T13:31:29.592Z,120
2017-09-12T13:32:31.999Z,178
2017-09-12T13:33:34.418Z,159
2017-09-12T13:34:36.819Z,256
2017-09-12T13:35:39.224Z,265
2017-09-12T13:36:41.632Z,262
2017-09-12T13:37:44.027Z,270
2017-09-12T13:38:46.439Z,340
2017-09-12T13:39:48.844Z,280
2017-09-12T13:40:51.258Z,225
2017-09-12T13:41:53.666Z,201
2017-09-12T13:42:56.067Z,237
2017-09-12T13:43:58.472Z,238
2017-09-12T13:45:00.893Z,246
2017-09-12T13:46:03.291Z,204
2017-09-12T13:47:05.701Z,161
2017-09-12T13:48:08.108Z,189
2017-09-12T13:49:10.516Z,205
2017-09-12T13:50:12.932Z,221
2017-09-12T13:51:15.335Z,204
2017-09-12T13:52:17.741Z,148
2017-09-12T13:53:20.158Z,194
2017-09-12T13:54:22.567Z,218
2017-09-12T13:55:24.973Z,235
2017-09-12T13:56:27.375Z,190
2017-09-12T13:57:29.779Z,233
2017-09-12T13:58:32.183Z,222
2017-09-12T13:59:34.584Z,181
2017-09-12T14:00:36.991Z,230
2017-09-12T14:01:39.407Z,234
2017-09-12T14:02:42.152Z,217
2017-09-12T14:03:44.551Z,251
2017-09-12T14:04:46.965Z,254
2017-09-12T14:05:49.374Z,245
2017-09-12T14:06:51.781Z,108
2017-09-12T14:07:54.191Z,122
2017-09-12T14:08:56.595Z,104
2017-09-12T14:09:59.001Z,108
2017-09-12T14:11:01.436Z,108
2017-09-12T14:12:03.835Z,71
2017-09-12T14:13:06.239Z,55
2017-09-12T14:14:08.650Z,49
2017-09-12T14:15:11.059Z,40
2017-09-12T14:16:13.472Z,29
2017-09-12T14:17:15.888Z,22
2017-09-12T14:18:18.286Z,27
2017-09-12T14:19:20.703Z,31
2017-09-12T14:20:23.109Z,31
2017-09-12T14:21:25.517Z,26
2017-09-12T14:22:27.928Z,24
2017-09-12T14:23:30.331Z,24
2017-09-12T14:24:32.739Z,19
2017-09-12T14:25:35.146Z,22
2017-09-12T14:26:37.552Z,21
2017-09-12T14:27:39.958Z,20
2017-09-12T14:28:42.364Z,19
2017-09-12T14:29:44.767Z,18
2017-09-12T14:30:47.177Z,19
2017-09-12T14:31:49.582Z,19
2017-09-12T14:32:51.986Z,21
2017-09-12T14:33:54.392Z,25
2017-09-12T14:34:56.801Z,30
2017-09-12T14:35:59.201Z,35
2017-09-12T14:37:01.606Z,39
2017-09-12T14:38:04.008Z,40
2017-09-12T14:39:06.756Z,42
2017-09-12T14:40:09.161Z,44
2017-09-12T14:41:11.566Z,45
2017-09-12T14:42:14.298Z,45
2017-09-12T14:43:16.709Z,45
2017-09-12T14:44:19.117Z,45
2017-09-12T14:45:21.522Z,46
2017-09-12T14:46:24.295Z,50
2017-09-12T14:47:26.691Z,53
2017-09-12T14:48:29.092Z,56
2017-09-12T14:49:31.508Z,58
2017-09-12T14:50:33.927Z,65
2017-09-12T14:51:36.344Z,60
2017-09-12T14:52:38.751Z,62
2017-09-12T14:53:41.156Z,66
2017-09-12T14:54:46.059Z,138